sensor_id;sensor_type;location;lat;lon;timestamp;P1;durP1;ratioP1;P2;durP2;ratioP2
65665;SDS011;52365;47.464;18.976;2022-11-15T00:00:26;45.83;;;28.95;;
65665;SDS011;52365;47.464;18.976;2022-11-15T00:01:05;46.83;;;29.15;;
65665;SDS011;52365;47.464;18.976;2022-11-15T00:01:42;45.47;;;29.05;;
65665;SDS011;52365;47.464;18.976;2022-11-15T00:02:18;48.15;;;29.23;;
65665;SDS011;52365;47.464;18.976;2022-11-15T00:02:54;44.25;;;28.83;;
65665;SDS011;52365;47.464;18.976;2022-11-15T00:03:31;47.28;;;28.83;;
65665;SDS011;52365;47.464;18.976;2022-11-15T00:04:07;47.80;;;29.23;;
65665;SDS011;52365;47.464;18.976;2022-11-15T00:04:43;48.75;;;30.12;;
65665;SDS011;52365;47.464;18.976;2022-11-15T00:05:19;44.83;;;29.40;;
65665;SDS011;52365;47.464;18.976;2022-11-15T00:05:55;44.63;;;29.25;;
65665;SDS011;52365;47.464;18.976;2022-11-15T00:06:37;41.78;;;27.80;;
65665;SDS011;52365;47.464;18.976;2022-11-15T00:07:13;45.45;;;29.55;;
65665;SDS011;52365;47.464;18.976;2022-11-15T00:07:49;44.15;;;29.12;;
65665;SDS011;52365;47.464;18.976;2022-11-15T00:08:28;43.53;;;29.33;;
65665;SDS011;52365;47.464;18.976;2022-11-15T00:09:05;72.75;;;50.22;;
65665;SDS011;52365;47.464;18.976;2022-11-15T00:09:41;70.93;;;48.13;;
65665;SDS011;52365;47.464;18.976;2022-11-15T00:10:17;53.35;;;35.13;;
65665;SDS011;52365;47.464;18.976;2022-11-15T00:10:54;46.92;;;32.30;;
65665;SDS011;52365;47.464;18.976;2022-11-15T00:11:31;44.78;;;31.30;;
65665;SDS011;52365;47.464;18.976;2022-11-15T00:12:07;44.67;;;31.10;;
65665;SDS011;52365;47.464;18.976;2022-11-15T00:12:43;43.10;;;28.87;;
65665;SDS011;52365;47.464;18.976;2022-11-15T00:13:19;41.20;;;28.67;;
65665;SDS011;52365;47.464;18.976;2022-11-15T00:13:56;42.92;;;28.90;;
65665;SDS011;52365;47.464;18.976;2022-11-15T00:14:33;41.67;;;28.52;;
65665;SDS011;52365;47.464;18.976;2022-11-15T00:15:09;42.35;;;28.87;;
65665;SDS011;52365;47.464;18.976;2022-11-15T00:15:45;40.83;;;28.38;;
65665;SDS011;52365;47.464;18.976;2022-11-15T00:16:21;41.70;;;27.92;;
65665;SDS011;52365;47.464;18.976;2022-11-15T00:16:57;41.03;;;27.62;;
65665;SDS011;52365;47.464;18.976;2022-11-15T00:17:33;40.35;;;27.87;;
65665;SDS011;52365;47.464;18.976;2022-11-15T00:18:12;43.33;;;28.67;;
65665;SDS011;52365;47.464;18.976;2022-11-15T00:18:49;41.08;;;27.73;;
65665;SDS011;52365;47.464;18.976;2022-11-15T00:19:25;42.13;;;28.00;;
65665;SDS011;52365;47.464;18.976;2022-11-15T00:20:01;41.13;;;27.08;;
65665;SDS011;52365;47.464;18.976;2022-11-15T00:20:38;43.00;;;27.67;;
65665;SDS011;52365;47.464;18.976;2022-11-15T00:21:14;42.80;;;28.25;;
65665;SDS011;52365;47.464;18.976;2022-11-15T00:21:51;41.30;;;28.92;;
65665;SDS011;52365;47.464;18.976;2022-11-15T00:22:33;41.03;;;27.75;;
65665;SDS011;52365;47.464;18.976;2022-11-15T00:23:09;41.35;;;28.05;;
65665;SDS011;52365;47.464;18.976;2022-11-15T00:23:45;41.20;;;27.75;;
65665;SDS011;52365;47.464;18.976;2022-11-15T00:24:21;41.03;;;27.62;;
65665;SDS011;52365;47.464;18.976;2022-11-15T00:24:57;40.80;;;26.98;;
65665;SDS011;52365;47.464;18.976;2022-11-15T00:25:33;41.47;;;27.70;;
65665;SDS011;52365;47.464;18.976;2022-11-15T00:26:11;40.00;;;27.25;;
65665;SDS011;52365;47.464;18.976;2022-11-15T00:26:48;39.63;;;26.85;;
65665;SDS011;52365;47.464;18.976;2022-11-15T00:27:24;37.83;;;26.05;;
65665;SDS011;52365;47.464;18.976;2022-11-15T00:28:00;39.92;;;27.02;;
65665;SDS011;52365;47.464;18.976;2022-11-15T00:28:37;40.78;;;27.52;;
65665;SDS011;52365;47.464;18.976;2022-11-15T00:29:13;40.10;;;27.98;;
65665;SDS011;52365;47.464;18.976;2022-11-15T00:29:49;39.13;;;27.90;;
65665;SDS011;52365;47.464;18.976;2022-11-15T00:30:25;40.00;;;27.13;;
65665;SDS011;52365;47.464;18.976;2022-11-15T00:31:05;40.88;;;27.20;;
65665;SDS011;52365;47.464;18.976;2022-11-15T00:31:43;39.72;;;26.95;;
65665;SDS011;52365;47.464;18.976;2022-11-15T00:32:19;40.15;;;27.58;;
65665;SDS011;52365;47.464;18.976;2022-11-15T00:32:55;37.97;;;26.83;;
65665;SDS011;52365;47.464;18.976;2022-11-15T00:33:31;39.08;;;27.23;;
65665;SDS011;52365;47.464;18.976;2022-11-15T00:34:08;40.90;;;27.27;;
65665;SDS011;52365;47.464;18.976;2022-11-15T00:34:45;37.53;;;26.73;;
65665;SDS011;52365;47.464;18.976;2022-11-15T00:35:21;38.85;;;27.65;;
65665;SDS011;52365;47.464;18.976;2022-11-15T00:36:04;39.30;;;26.77;;
65665;SDS011;52365;47.464;18.976;2022-11-15T00:36:42;37.47;;;27.00;;
65665;SDS011;52365;47.464;18.976;2022-11-15T00:37:18;39.97;;;27.15;;
65665;SDS011;52365;47.464;18.976;2022-11-15T00:37:54;36.67;;;26.15;;
65665;SDS011;52365;47.464;18.976;2022-11-15T00:38:33;37.92;;;26.67;;
65665;SDS011;52365;47.464;18.976;2022-11-15T00:39:10;39.42;;;26.37;;
65665;SDS011;52365;47.464;18.976;2022-11-15T00:39:46;37.83;;;26.80;;
65665;SDS011;52365;47.464;18.976;2022-11-15T00:40:22;36.08;;;26.05;;
65665;SDS011;52365;47.464;18.976;2022-11-15T00:40:58;37.33;;;27.17;;
65665;SDS011;52365;47.464;18.976;2022-11-15T00:41:35;35.78;;;25.70;;
65665;SDS011;52365;47.464;18.976;2022-11-15T00:42:11;38.15;;;26.60;;
65665;SDS011;52365;47.464;18.976;2022-11-15T00:42:47;36.67;;;26.55;;
65665;SDS011;52365;47.464;18.976;2022-11-15T00:43:23;36.95;;;26.42;;
65665;SDS011;52365;47.464;18.976;2022-11-15T00:43:59;37.03;;;25.80;;
65665;SDS011;52365;47.464;18.976;2022-11-15T00:44:35;36.90;;;26.35;;
65665;SDS011;52365;47.464;18.976;2022-11-15T00:45:11;37.05;;;26.85;;
65665;SDS011;52365;47.464;18.976;2022-11-15T00:45:47;36.75;;;26.12;;
65665;SDS011;52365;47.464;18.976;2022-11-15T00:46:23;35.40;;;25.67;;
65665;SDS011;52365;47.464;18.976;2022-11-15T00:46:59;35.13;;;25.40;;
65665;SDS011;52365;47.464;18.976;2022-11-15T00:47:35;37.50;;;26.62;;
65665;SDS011;52365;47.464;18.976;2022-11-15T00:48:11;37.10;;;26.27;;
65665;SDS011;52365;47.464;18.976;2022-11-15T00:48:47;36.67;;;25.77;;
65665;SDS011;52365;47.464;18.976;2022-11-15T00:49:23;36.60;;;26.45;;
65665;SDS011;52365;47.464;18.976;2022-11-15T00:49:59;38.58;;;26.33;;
65665;SDS011;52365;47.464;18.976;2022-11-15T00:50:35;38.35;;;26.95;;
65665;SDS011;52365;47.464;18.976;2022-11-15T00:51:11;38.75;;;27.02;;
65665;SDS011;52365;47.464;18.976;2022-11-15T00:51:47;39.08;;;25.52;;
65665;SDS011;52365;47.464;18.976;2022-11-15T00:52:23;35.55;;;25.27;;
65665;SDS011;52365;47.464;18.976;2022-11-15T00:52:59;36.55;;;26.15;;
65665;SDS011;52365;47.464;18.976;2022-11-15T00:53:35;37.35;;;26.30;;
65665;SDS011;52365;47.464;18.976;2022-11-15T00:54:11;36.88;;;25.90;;
65665;SDS011;52365;47.464;18.976;2022-11-15T00:54:47;38.25;;;25.80;;
65665;SDS011;52365;47.464;18.976;2022-11-15T00:55:23;37.33;;;26.40;;
65665;SDS011;52365;47.464;18.976;2022-11-15T00:55:59;36.58;;;25.90;;
65665;SDS011;52365;47.464;18.976;2022-11-15T00:56:35;34.92;;;25.50;;
65665;SDS011;52365;47.464;18.976;2022-11-15T00:57:11;34.75;;;25.12;;
65665;SDS011;52365;47.464;18.976;2022-11-15T00:57:47;36.10;;;25.52;;
65665;SDS011;52365;47.464;18.976;2022-11-15T00:58:23;36.33;;;25.95;;
65665;SDS011;52365;47.464;18.976;2022-11-15T00:58:59;36.88;;;25.60;;
65665;SDS011;52365;47.464;18.976;2022-11-15T00:59:35;36.35;;;25.33;;
65665;SDS011;52365;47.464;18.976;2022-11-15T01:00:11;35.53;;;25.23;;
65665;SDS011;52365;47.464;18.976;2022-11-15T01:00:48;37.60;;;25.83;;
65665;SDS011;52365;47.464;18.976;2022-11-15T01:01:24;37.75;;;26.27;;
65665;SDS011;52365;47.464;18.976;2022-11-15T01:02:00;37.42;;;25.80;;
65665;SDS011;52365;47.464;18.976;2022-11-15T01:02:36;36.97;;;25.33;;
65665;SDS011;52365;47.464;18.976;2022-11-15T01:03:12;35.70;;;25.80;;
65665;SDS011;52365;47.464;18.976;2022-11-15T01:03:48;34.90;;;25.35;;
65665;SDS011;52365;47.464;18.976;2022-11-15T01:04:25;33.75;;;24.35;;
65665;SDS011;52365;47.464;18.976;2022-11-15T01:05:01;34.13;;;24.35;;
65665;SDS011;52365;47.464;18.976;2022-11-15T01:05:37;35.05;;;24.83;;
65665;SDS011;52365;47.464;18.976;2022-11-15T01:06:13;36.28;;;25.45;;
65665;SDS011;52365;47.464;18.976;2022-11-15T01:06:49;35.40;;;25.23;;
65665;SDS011;52365;47.464;18.976;2022-11-15T01:07:25;35.90;;;25.15;;
65665;SDS011;52365;47.464;18.976;2022-11-15T01:08:01;34.40;;;25.08;;
65665;SDS011;52365;47.464;18.976;2022-11-15T01:08:41;34.20;;;24.77;;
65665;SDS011;52365;47.464;18.976;2022-11-15T01:09:17;34.95;;;25.20;;
65665;SDS011;52365;47.464;18.976;2022-11-15T01:09:53;36.03;;;25.48;;
65665;SDS011;52365;47.464;18.976;2022-11-15T01:10:29;35.00;;;25.48;;
65665;SDS011;52365;47.464;18.976;2022-11-15T01:11:09;36.13;;;24.95;;
65665;SDS011;52365;47.464;18.976;2022-11-15T01:11:47;32.53;;;24.55;;
65665;SDS011;52365;47.464;18.976;2022-11-15T01:12:23;34.63;;;24.65;;
65665;SDS011;52365;47.464;18.976;2022-11-15T01:12:59;32.30;;;24.33;;
65665;SDS011;52365;47.464;18.976;2022-11-15T01:13:35;33.85;;;24.75;;
65665;SDS011;52365;47.464;18.976;2022-11-15T01:14:13;33.97;;;24.35;;
65665;SDS011;52365;47.464;18.976;2022-11-15T01:14:49;33.75;;;23.65;;
65665;SDS011;52365;47.464;18.976;2022-11-15T01:15:25;32.80;;;24.15;;
65665;SDS011;52365;47.464;18.976;2022-11-15T01:16:08;35.20;;;24.33;;
65665;SDS011;52365;47.464;18.976;2022-11-15T01:16:46;32.88;;;24.37;;
65665;SDS011;52365;47.464;18.976;2022-11-15T01:17:22;32.80;;;23.90;;
65665;SDS011;52365;47.464;18.976;2022-11-15T01:17:58;31.37;;;23.90;;
65665;SDS011;52365;47.464;18.976;2022-11-15T01:18:34;34.33;;;24.35;;
65665;SDS011;52365;47.464;18.976;2022-11-15T01:19:10;33.97;;;24.08;;
65665;SDS011;52365;47.464;18.976;2022-11-15T01:19:47;32.88;;;24.12;;
65665;SDS011;52365;47.464;18.976;2022-11-15T01:20:23;34.85;;;24.17;;
65665;SDS011;52365;47.464;18.976;2022-11-15T01:20:59;32.47;;;23.73;;
65665;SDS011;52365;47.464;18.976;2022-11-15T01:21:35;31.65;;;23.80;;
65665;SDS011;52365;47.464;18.976;2022-11-15T01:22:12;34.33;;;23.60;;
65665;SDS011;52365;47.464;18.976;2022-11-15T01:22:48;32.30;;;23.58;;
65665;SDS011;52365;47.464;18.976;2022-11-15T01:23:24;31.48;;;22.67;;
65665;SDS011;52365;47.464;18.976;2022-11-15T01:24:00;32.28;;;23.15;;
65665;SDS011;52365;47.464;18.976;2022-11-15T01:24:36;32.67;;;22.92;;
65665;SDS011;52365;47.464;18.976;2022-11-15T01:25:12;32.95;;;23.55;;
65665;SDS011;52365;47.464;18.976;2022-11-15T01:25:48;32.13;;;23.50;;
65665;SDS011;52365;47.464;18.976;2022-11-15T01:26:24;33.67;;;23.75;;
65665;SDS011;52365;47.464;18.976;2022-11-15T01:27:01;31.42;;;23.25;;
65665;SDS011;52365;47.464;18.976;2022-11-15T01:27:37;31.23;;;22.83;;
65665;SDS011;52365;47.464;18.976;2022-11-15T01:28:13;32.17;;;23.23;;
65665;SDS011;52365;47.464;18.976;2022-11-15T01:28:50;32.50;;;23.17;;
65665;SDS011;52365;47.464;18.976;2022-11-15T01:29:26;32.40;;;23.52;;
65665;SDS011;52365;47.464;18.976;2022-11-15T01:30:02;32.58;;;23.35;;
65665;SDS011;52365;47.464;18.976;2022-11-15T01:30:39;32.15;;;23.67;;
65665;SDS011;52365;47.464;18.976;2022-11-15T01:31:16;32.42;;;22.95;;
65665;SDS011;52365;47.464;18.976;2022-11-15T01:31:54;31.85;;;22.35;;
65665;SDS011;52365;47.464;18.976;2022-11-15T01:32:31;32.83;;;23.77;;
65665;SDS011;52365;47.464;18.976;2022-11-15T01:33:07;32.03;;;22.80;;
65665;SDS011;52365;47.464;18.976;2022-11-15T01:33:43;32.28;;;23.55;;
65665;SDS011;52365;47.464;18.976;2022-11-15T01:34:19;30.27;;;22.33;;
65665;SDS011;52365;47.464;18.976;2022-11-15T01:34:55;31.12;;;23.08;;
65665;SDS011;52365;47.464;18.976;2022-11-15T01:35:31;31.42;;;22.75;;
65665;SDS011;52365;47.464;18.976;2022-11-15T01:36:10;30.08;;;22.73;;
65665;SDS011;52365;47.464;18.976;2022-11-15T01:36:49;30.80;;;23.12;;
65665;SDS011;52365;47.464;18.976;2022-11-15T01:37:25;31.30;;;23.42;;
65665;SDS011;52365;47.464;18.976;2022-11-15T01:38:01;31.90;;;22.45;;
65665;SDS011;52365;47.464;18.976;2022-11-15T01:38:37;32.45;;;23.15;;
65665;SDS011;52365;47.464;18.976;2022-11-15T01:39:13;32.45;;;23.92;;
65665;SDS011;52365;47.464;18.976;2022-11-15T01:39:49;40.28;;;29.67;;
65665;SDS011;52365;47.464;18.976;2022-11-15T01:40:25;33.22;;;23.92;;
65665;SDS011;52365;47.464;18.976;2022-11-15T01:41:01;33.30;;;23.20;;
65665;SDS011;52365;47.464;18.976;2022-11-15T01:41:37;32.55;;;23.83;;
65665;SDS011;52365;47.464;18.976;2022-11-15T01:42:13;31.35;;;22.98;;
65665;SDS011;52365;47.464;18.976;2022-11-15T01:42:50;33.13;;;22.80;;
65665;SDS011;52365;47.464;18.976;2022-11-15T01:45:15;41.92;;;29.37;;
65665;SDS011;52365;47.464;18.976;2022-11-15T01:45:56;37.53;;;26.98;;
65665;SDS011;52365;47.464;18.976;2022-11-15T01:46:38;37.40;;;26.00;;
65665;SDS011;52365;47.464;18.976;2022-11-15T01:47:22;34.10;;;24.05;;
65665;SDS011;52365;47.464;18.976;2022-11-15T01:48:01;32.60;;;23.23;;
65665;SDS011;52365;47.464;18.976;2022-11-15T01:48:38;34.00;;;23.33;;
65665;SDS011;52365;47.464;18.976;2022-11-15T01:49:15;32.83;;;23.40;;
65665;SDS011;52365;47.464;18.976;2022-11-15T01:49:56;30.37;;;22.33;;
65665;SDS011;52365;47.464;18.976;2022-11-15T01:50:43;30.85;;;22.65;;
65665;SDS011;52365;47.464;18.976;2022-11-15T01:51:21;32.97;;;22.85;;
65665;SDS011;52365;47.464;18.976;2022-11-15T01:52:01;31.33;;;22.13;;
65665;SDS011;52365;47.464;18.976;2022-11-15T01:52:39;30.58;;;21.92;;
65665;SDS011;52365;47.464;18.976;2022-11-15T01:53:17;30.70;;;22.37;;
65665;SDS011;52365;47.464;18.976;2022-11-15T01:53:57;31.42;;;22.23;;
65665;SDS011;52365;47.464;18.976;2022-11-15T01:54:39;32.10;;;22.55;;
65665;SDS011;52365;47.464;18.976;2022-11-15T01:55:20;32.83;;;23.15;;
65665;SDS011;52365;47.464;18.976;2022-11-15T01:56:02;30.55;;;21.60;;
65665;SDS011;52365;47.464;18.976;2022-11-15T01:56:49;30.95;;;22.58;;
65665;SDS011;52365;47.464;18.976;2022-11-15T01:57:28;31.23;;;22.45;;
65665;SDS011;52365;47.464;18.976;2022-11-15T01:58:05;30.70;;;22.73;;
65665;SDS011;52365;47.464;18.976;2022-11-15T01:58:43;33.03;;;23.75;;
65665;SDS011;52365;47.464;18.976;2022-11-15T01:59:20;31.25;;;22.48;;
65665;SDS011;52365;47.464;18.976;2022-11-15T01:59:57;31.92;;;23.45;;
65665;SDS011;52365;47.464;18.976;2022-11-15T02:00:35;31.90;;;23.17;;
65665;SDS011;52365;47.464;18.976;2022-11-15T02:01:14;31.58;;;23.15;;
65665;SDS011;52365;47.464;18.976;2022-11-15T02:01:51;33.03;;;24.42;;
65665;SDS011;52365;47.464;18.976;2022-11-15T02:02:27;32.03;;;22.62;;
65665;SDS011;52365;47.464;18.976;2022-11-15T02:03:03;30.67;;;22.92;;
65665;SDS011;52365;47.464;18.976;2022-11-15T02:03:41;33.35;;;22.90;;
65665;SDS011;52365;47.464;18.976;2022-11-15T02:04:28;31.45;;;22.58;;
65665;SDS011;52365;47.464;18.976;2022-11-15T02:05:06;32.10;;;23.58;;
65665;SDS011;52365;47.464;18.976;2022-11-15T02:05:43;31.07;;;22.60;;
65665;SDS011;52365;47.464;18.976;2022-11-15T02:06:20;29.85;;;22.02;;
65665;SDS011;52365;47.464;18.976;2022-11-15T02:06:57;31.10;;;22.55;;
65665;SDS011;52365;47.464;18.976;2022-11-15T02:07:35;32.43;;;22.87;;
65665;SDS011;52365;47.464;18.976;2022-11-15T02:08:12;31.02;;;22.35;;
65665;SDS011;52365;47.464;18.976;2022-11-15T02:08:55;31.08;;;22.50;;
65665;SDS011;52365;47.464;18.976;2022-11-15T02:09:33;30.27;;;22.00;;
65665;SDS011;52365;47.464;18.976;2022-11-15T02:10:10;30.27;;;22.00;;
65665;SDS011;52365;47.464;18.976;2022-11-15T02:10:48;31.40;;;21.92;;
65665;SDS011;52365;47.464;18.976;2022-11-15T02:11:24;29.37;;;21.65;;
65665;SDS011;52365;47.464;18.976;2022-11-15T02:12:00;32.55;;;22.62;;
65665;SDS011;52365;47.464;18.976;2022-11-15T02:12:37;30.45;;;22.20;;
65665;SDS011;52365;47.464;18.976;2022-11-15T02:13:16;31.27;;;22.33;;
65665;SDS011;52365;47.464;18.976;2022-11-15T02:13:53;32.70;;;22.55;;
65665;SDS011;52365;47.464;18.976;2022-11-15T02:14:30;31.52;;;22.40;;
65665;SDS011;52365;47.464;18.976;2022-11-15T02:15:07;29.83;;;22.02;;
65665;SDS011;52365;47.464;18.976;2022-11-15T02:15:49;30.58;;;22.15;;
65665;SDS011;52365;47.464;18.976;2022-11-15T02:18:11;30.62;;;22.48;;
65665;SDS011;52365;47.464;18.976;2022-11-15T02:18:55;33.25;;;22.45;;
65665;SDS011;52365;47.464;18.976;2022-11-15T02:22:37;31.35;;;22.67;;
65665;SDS011;52365;47.464;18.976;2022-11-15T02:24:37;30.75;;;21.83;;
65665;SDS011;52365;47.464;18.976;2022-11-15T02:25:54;29.90;;;21.83;;
65665;SDS011;52365;47.464;18.976;2022-11-15T02:26:42;30.45;;;22.20;;
65665;SDS011;52365;47.464;18.976;2022-11-15T02:29:13;31.30;;;21.98;;
65665;SDS011;52365;47.464;18.976;2022-11-15T02:32:27;32.25;;;21.80;;
65665;SDS011;52365;47.464;18.976;2022-11-15T02:34:30;30.67;;;21.87;;
65665;SDS011;52365;47.464;18.976;2022-11-15T02:37:16;28.73;;;20.95;;
65665;SDS011;52365;47.464;18.976;2022-11-15T02:40:13;30.23;;;21.73;;
65665;SDS011;52365;47.464;18.976;2022-11-15T02:40:59;29.42;;;20.98;;
65665;SDS011;52365;47.464;18.976;2022-11-15T02:42:33;28.65;;;20.98;;
65665;SDS011;52365;47.464;18.976;2022-11-15T02:44:33;28.48;;;20.88;;
65665;SDS011;52365;47.464;18.976;2022-11-15T02:45:17;29.05;;;21.17;;
65665;SDS011;52365;47.464;18.976;2022-11-15T02:46:02;28.87;;;20.50;;
65665;SDS011;52365;47.464;18.976;2022-11-15T02:46:45;28.70;;;20.88;;
65665;SDS011;52365;47.464;18.976;2022-11-15T02:47:45;28.05;;;20.12;;
65665;SDS011;52365;47.464;18.976;2022-11-15T02:48:23;27.08;;;20.00;;
65665;SDS011;52365;47.464;18.976;2022-11-15T02:49:01;27.70;;;20.50;;
65665;SDS011;52365;47.464;18.976;2022-11-15T02:49:37;29.45;;;20.90;;
65665;SDS011;52365;47.464;18.976;2022-11-15T02:50:17;28.40;;;20.50;;
65665;SDS011;52365;47.464;18.976;2022-11-15T02:50:56;27.42;;;20.25;;
65665;SDS011;52365;47.464;18.976;2022-11-15T02:51:33;28.85;;;20.48;;
65665;SDS011;52365;47.464;18.976;2022-11-15T02:52:13;27.70;;;20.20;;
65665;SDS011;52365;47.464;18.976;2022-11-15T02:52:50;28.30;;;19.98;;
65665;SDS011;52365;47.464;18.976;2022-11-15T02:53:27;27.52;;;20.15;;
65665;SDS011;52365;47.464;18.976;2022-11-15T02:54:03;27.83;;;20.45;;
65665;SDS011;52365;47.464;18.976;2022-11-15T02:54:39;26.67;;;19.65;;
65665;SDS011;52365;47.464;18.976;2022-11-15T02:55:32;27.27;;;20.30;;
65665;SDS011;52365;47.464;18.976;2022-11-15T02:56:09;27.42;;;20.05;;
65665;SDS011;52365;47.464;18.976;2022-11-15T02:56:47;28.50;;;20.42;;
65665;SDS011;52365;47.464;18.976;2022-11-15T03:00:06;27.23;;;19.40;;
65665;SDS011;52365;47.464;18.976;2022-11-15T03:00:47;29.52;;;20.35;;
65665;SDS011;52365;47.464;18.976;2022-11-15T03:05:12;28.02;;;20.25;;
65665;SDS011;52365;47.464;18.976;2022-11-15T03:06:01;27.90;;;19.45;;
65665;SDS011;52365;47.464;18.976;2022-11-15T03:07:55;26.25;;;19.30;;
65665;SDS011;52365;47.464;18.976;2022-11-15T03:09:13;26.90;;;19.52;;
65665;SDS011;52365;47.464;18.976;2022-11-15T03:10:14;27.10;;;19.33;;
65665;SDS011;52365;47.464;18.976;2022-11-15T03:11:50;27.73;;;20.23;;
65665;SDS011;52365;47.464;18.976;2022-11-15T03:12:36;27.75;;;20.20;;
65665;SDS011;52365;47.464;18.976;2022-11-15T03:13:57;27.58;;;19.77;;
65665;SDS011;52365;47.464;18.976;2022-11-15T03:14:39;27.85;;;20.00;;
65665;SDS011;52365;47.464;18.976;2022-11-15T03:15:37;27.70;;;20.67;;
65665;SDS011;52365;47.464;18.976;2022-11-15T03:16:19;28.23;;;19.92;;
65665;SDS011;52365;47.464;18.976;2022-11-15T03:17:18;26.62;;;19.85;;
65665;SDS011;52365;47.464;18.976;2022-11-15T03:17:58;26.48;;;19.52;;
65665;SDS011;52365;47.464;18.976;2022-11-15T03:18:41;27.15;;;19.20;;
65665;SDS011;52365;47.464;18.976;2022-11-15T03:20:05;26.33;;;19.12;;
65665;SDS011;52365;47.464;18.976;2022-11-15T03:20:42;26.83;;;19.30;;
65665;SDS011;52365;47.464;18.976;2022-11-15T03:21:20;28.10;;;19.65;;
65665;SDS011;52365;47.464;18.976;2022-11-15T03:21:58;25.20;;;18.85;;
65665;SDS011;52365;47.464;18.976;2022-11-15T03:22:37;25.30;;;18.83;;
65665;SDS011;52365;47.464;18.976;2022-11-15T03:23:17;25.55;;;18.62;;
65665;SDS011;52365;47.464;18.976;2022-11-15T03:23:54;26.48;;;19.02;;
65665;SDS011;52365;47.464;18.976;2022-11-15T03:24:34;26.45;;;19.27;;
65665;SDS011;52365;47.464;18.976;2022-11-15T03:25:16;24.67;;;18.42;;
65665;SDS011;52365;47.464;18.976;2022-11-15T03:25:55;24.37;;;18.48;;
65665;SDS011;52365;47.464;18.976;2022-11-15T03:26:33;26.42;;;18.70;;
65665;SDS011;52365;47.464;18.976;2022-11-15T03:27:13;26.23;;;18.70;;
65665;SDS011;52365;47.464;18.976;2022-11-15T03:27:53;24.40;;;18.12;;
65665;SDS011;52365;47.464;18.976;2022-11-15T03:28:34;24.60;;;17.95;;
65665;SDS011;52365;47.464;18.976;2022-11-15T03:29:18;26.20;;;18.05;;
65665;SDS011;52365;47.464;18.976;2022-11-15T03:29:59;24.23;;;18.35;;
65665;SDS011;52365;47.464;18.976;2022-11-15T03:30:38;25.12;;;18.48;;
65665;SDS011;52365;47.464;18.976;2022-11-15T03:31:16;25.60;;;17.92;;
65665;SDS011;52365;47.464;18.976;2022-11-15T03:32:16;23.55;;;17.50;;
65665;SDS011;52365;47.464;18.976;2022-11-15T03:33:00;25.48;;;17.60;;
65665;SDS011;52365;47.464;18.976;2022-11-15T03:33:39;24.52;;;17.90;;
65665;SDS011;52365;47.464;18.976;2022-11-15T03:35:01;24.75;;;18.02;;
65665;SDS011;52365;47.464;18.976;2022-11-15T03:35:27;22.90;;;17.17;;
65665;SDS011;52365;47.464;18.976;2022-11-15T03:36:06;22.87;;;17.00;;
65665;SDS011;52365;47.464;18.976;2022-11-15T03:36:42;22.92;;;16.95;;
65665;SDS011;52365;47.464;18.976;2022-11-15T03:37:20;23.87;;;17.15;;
65665;SDS011;52365;47.464;18.976;2022-11-15T03:38:04;22.08;;;16.05;;
65665;SDS011;52365;47.464;18.976;2022-11-15T03:38:46;21.85;;;16.17;;
65665;SDS011;52365;47.464;18.976;2022-11-15T03:39:22;22.23;;;16.80;;
65665;SDS011;52365;47.464;18.976;2022-11-15T03:39:59;21.98;;;16.27;;
65665;SDS011;52365;47.464;18.976;2022-11-15T03:40:40;22.70;;;16.15;;
65665;SDS011;52365;47.464;18.976;2022-11-15T03:41:24;23.87;;;16.45;;
65665;SDS011;52365;47.464;18.976;2022-11-15T03:42:23;21.37;;;16.55;;
65665;SDS011;52365;47.464;18.976;2022-11-15T03:43:16;21.12;;;15.95;;
65665;SDS011;52365;47.464;18.976;2022-11-15T03:46:04;18.27;;;13.62;;
65665;SDS011;52365;47.464;18.976;2022-11-15T03:46:52;17.25;;;13.45;;
65665;SDS011;52365;47.464;18.976;2022-11-15T03:48:35;19.48;;;14.10;;
65665;SDS011;52365;47.464;18.976;2022-11-15T03:49:22;19.95;;;13.73;;
65665;SDS011;52365;47.464;18.976;2022-11-15T03:50:07;19.15;;;14.13;;
65665;SDS011;52365;47.464;18.976;2022-11-15T03:50:47;18.70;;;13.75;;
65665;SDS011;52365;47.464;18.976;2022-11-15T03:51:24;18.12;;;13.60;;
65665;SDS011;52365;47.464;18.976;2022-11-15T03:52:01;19.80;;;13.82;;
65665;SDS011;52365;47.464;18.976;2022-11-15T03:52:39;19.50;;;13.75;;
65665;SDS011;52365;47.464;18.976;2022-11-15T03:53:17;18.67;;;13.55;;
65665;SDS011;52365;47.464;18.976;2022-11-15T03:53:53;18.77;;;13.00;;
65665;SDS011;52365;47.464;18.976;2022-11-15T03:54:29;17.40;;;12.80;;
65665;SDS011;52365;47.464;18.976;2022-11-15T03:55:07;16.08;;;11.70;;
65665;SDS011;52365;47.464;18.976;2022-11-15T03:55:46;15.57;;;11.30;;
65665;SDS011;52365;47.464;18.976;2022-11-15T03:56:22;16.73;;;11.77;;
65665;SDS011;52365;47.464;18.976;2022-11-15T03:56:58;16.80;;;11.18;;
65665;SDS011;52365;47.464;18.976;2022-11-15T03:57:34;14.57;;;10.98;;
65665;SDS011;52365;47.464;18.976;2022-11-15T03:58:10;16.95;;;11.50;;
65665;SDS011;52365;47.464;18.976;2022-11-15T03:58:46;15.43;;;10.68;;
65665;SDS011;52365;47.464;18.976;2022-11-15T03:59:22;15.82;;;10.95;;
65665;SDS011;52365;47.464;18.976;2022-11-15T03:59:59;14.87;;;10.85;;
65665;SDS011;52365;47.464;18.976;2022-11-15T04:00:35;14.45;;;10.65;;
65665;SDS011;52365;47.464;18.976;2022-11-15T04:01:11;15.00;;;10.32;;
65665;SDS011;52365;47.464;18.976;2022-11-15T04:01:47;14.18;;;10.07;;
65665;SDS011;52365;47.464;18.976;2022-11-15T04:02:23;14.15;;;10.35;;
65665;SDS011;52365;47.464;18.976;2022-11-15T04:02:59;15.07;;;10.43;;
65665;SDS011;52365;47.464;18.976;2022-11-15T04:03:35;13.70;;;10.00;;
65665;SDS011;52365;47.464;18.976;2022-11-15T04:04:11;15.43;;;10.68;;
65665;SDS011;52365;47.464;18.976;2022-11-15T04:04:47;15.20;;;11.05;;
65665;SDS011;52365;47.464;18.976;2022-11-15T04:05:23;15.60;;;10.48;;
65665;SDS011;52365;47.464;18.976;2022-11-15T04:05:59;15.20;;;11.12;;
65665;SDS011;52365;47.464;18.976;2022-11-15T04:06:35;15.40;;;10.55;;
65665;SDS011;52365;47.464;18.976;2022-11-15T04:07:11;14.52;;;10.73;;
65665;SDS011;52365;47.464;18.976;2022-11-15T04:07:47;14.80;;;10.63;;
65665;SDS011;52365;47.464;18.976;2022-11-15T04:08:23;15.00;;;10.43;;
65665;SDS011;52365;47.464;18.976;2022-11-15T04:08:59;14.60;;;10.90;;
65665;SDS011;52365;47.464;18.976;2022-11-15T04:09:35;15.82;;;11.57;;
65665;SDS011;52365;47.464;18.976;2022-11-15T04:10:34;15.27;;;11.05;;
65665;SDS011;52365;47.464;18.976;2022-11-15T04:11:10;16.95;;;12.13;;
65665;SDS011;52365;47.464;18.976;2022-11-15T04:11:46;16.70;;;12.20;;
65665;SDS011;52365;47.464;18.976;2022-11-15T04:12:22;17.62;;;12.27;;
65665;SDS011;52365;47.464;18.976;2022-11-15T04:13:07;17.00;;;11.80;;
65665;SDS011;52365;47.464;18.976;2022-11-15T04:13:43;15.65;;;11.18;;
65665;SDS011;52365;47.464;18.976;2022-11-15T04:14:19;16.30;;;11.40;;
65665;SDS011;52365;47.464;18.976;2022-11-15T04:14:56;15.38;;;11.30;;
65665;SDS011;52365;47.464;18.976;2022-11-15T04:15:43;17.02;;;11.40;;
65665;SDS011;52365;47.464;18.976;2022-11-15T04:16:19;16.80;;;11.50;;